x

Ilm2 - 5 Miles Se Of Wrightsville Beach, Nc (41038) Weather Station

5:08 - Mon 26th Sep 2016 All times are EDT. -4 hours from GMT.

  • Wind
    11mph, 16mph gusts
  • Sea Temp 81°f
  • Aire Temp 79°f
  • Sea Pressure 1018mb
  • Ilm2 - 5 Miles Se Of Wrightsville Beach, Nc
  • Ilm2 - 5 Miles Se Of Wrightsville Beach, Nc

More Historic Weather Station data

Upgrade to MSW Pro to gain access to the past 30 days of data for over 8000 Wavebouys and Weather Stations around the globe.

Join Pro

Comparision Forecast

View Surf forecast
   
lun 09/26 5:08 11 16 mph 1018mb 81f 79f
4:08 13 18 mph 1018.1mb 81f 78f
3:08 13 18 mph 1019.1mb 81f 78f
2:08 13 18 mph 1019.5mb 81f 78f
1:08 11 18 mph 1020.5mb 81f 78f
12:08 13 18 mph 1020.7mb 80f 77f
11:08 13 20 mph 1021.1mb 80f 77f
10:08 16 22 mph 1020.6mb 80f 77f
9:08 16 22 mph 1020.1mb 80f 77f
8:08 18 25 mph 1019.7mb 80f 76f
7:08 18 25 mph 1019.4mb 80f 75f
6:08 16 22 mph 1019.2mb 80f 76f
5:08 16 20 mph 1019.3mb 80f 77f
4:08 13 18 mph 1019.8mb 81f 77f
3:08 13 18 mph 1020mb 81f 77f
1:08 16 22 mph 1020mb 81f 77f
12:08 18 22 mph 1020.2mb 81f 76f
dom 09/25 11:08 18 29 mph 1020.4mb 81f 76f
10:08 20 27 mph 1020.5mb 81f 76f
9:08 20 25 mph 1020.9mb 81f 77f
8:08 18 25 mph 1020.5mb 81f 77f
7:08 20 27 mph 1019.4mb 81f 77f
6:08 20 27 mph 1019.1mb 81f 78f
5:08 16 22 mph 1019mb 81f 78f
4:08 16 20 mph 1019.1mb 81f 78f
3:08 16 20 mph 1019.3mb 81f 79f
2:08 13 20 mph 1019.7mb 81f 78f
1:08 13 20 mph 1020.5mb 81f 78f
12:08 16 20 mph 1020.6mb 81f 78f
11:08 16 22 mph 1020.8mb 81f 78f
10:08 16 22 mph 1020.6mb 81f 78f
9:08 18 22 mph 1020.4mb 81f 77f
8:08 18 22 mph 1019.5mb 81f 77f
7:08 13 18 mph 1019.3mb 81f 79f
6:08 13 16 mph 1018.9mb 81f 79f
5:08 11 16 mph 1018.3mb 81f 80f
4:08 11 13 mph 1018mb 81f 80f
3:08 9 11 mph 1018mb 81f 81f
2:08 4 9 mph 1018mb 81f 81f
1:08 4 7 mph 1018.1mb 81f 81f
12:08 4 7 mph 1018.2mb 81f 80f
sáb 09/24 11:08 4 7 mph 1018.4mb 81f 80f
10:08 4 7 mph 1018.5mb 81f 80f
9:08 7 11 mph 1018.2mb 82f 80f
8:08 4 7 mph 1017.5mb 82f 80f
7:08 4 7 mph 1017.3mb 82f 80f
6:08 4 9 mph 1017.1mb 82f 81f
5:08 7 9 mph 1017mb 82f 81f
4:08 7 9 mph 1017mb 82f 80f
3:08 4 9 mph 1017mb 82f 80f
2:08 7 9 mph 1017.5mb 82f 80f
1:08 7 9 mph 1018.4mb 81f 80f
12:08 7 11 mph 1018.7mb 81f 79f
11:08 9 13 mph 1018.8mb 81f 78f
10:08 11 13 mph 1018.6mb 81f 78f
9:08 9 13 mph 1018.3mb 81f 77f
8:08 13 16 mph 1018mb 81f 77f
7:08 11 16 mph 1017.3mb 81f 78f
6:08 11 16 mph 1016.6mb 81f 77f
5:08 11 16 mph 1016.2mb 81f 77f
4:08 11 16 mph 1016mb 81f 79f
3:08 11 13 mph 1016.4mb 81f 78f
2:08 9 13 mph 1016.4mb 81f 78f
1:08 9 13 mph 1016.5mb 81f 78f
12:08 11 16 mph 1016.6mb 81f 77f
vie 09/23 11:08 11 13 mph 1016.4mb 81f 79f
10:08 9 13 mph 1016.2mb 81f 78f
9:08 11 16 mph 1016.1mb 81f 78f
8:08 11 16 mph 1016.1mb 81f 77f
7:08 13 18 mph 1015.7mb 81f 78f
6:08 16 18 mph 1015.7mb 82f 78f
5:08 7 11 mph 1015.5mb 82f 79f
4:08 2 7 mph 1015.2mb 82f 81f
3:08 7 9 mph 1015.1mb 81f 80f
2:08 11 16 mph 1015.7mb 81f 80f
1:08 9 13 mph 1016.3mb 81f 79f
12:08 13 18 mph 1016.7mb 81f 79f
11:08 18 22 mph 1017.1mb 81f 79f
10:08 9 13 mph 1017.3mb 80f 79f
9:08 13 18 mph 1017mb 80f 75f
8:08 16 20 mph 1016.9mb 80f 77f
7:08 16 20 mph 1016.1mb 80f 78f
6:08 13 18 mph 1016mb 80f 78f
5:08 11 13 mph 1016.3mb 80f 78f
4:08 4 9 mph 1016.2mb 80f 78f
3:08 7 11 mph 1015.6mb 81f 79f
2:08 2 4 mph 1016mb 81f 80f
1:08 7 13 mph 1015.8mb 81f 80f
12:08 7 9 mph 1016.2mb 81f 81f
jue 09/22 11:08 9 11 mph 1016.1mb 81f 81f